Caribbean Princess — ZCDG8 — position and weather

sailwx.info

Track history (hours):
 
Tides and Currents Weather Stations Pressure Air Temp Water Temp Dewpoint Dewpoint Depression Visibility Wind Speed Wind Dir Waves Ship Positions

Caribbean Princess

Operator: Princess Cruises

Last reported at 2014-Jul-19 22:33 UTC. Time now 2014-Jul-24 06:23 UTC.
Position N 26°12' W 079°28'.

Type: Passenger vessel. MMSI: 310423000.

Date/timePositionNaut miles runAvg speedWind from/ knotsBaromVisibWave heightAir tempDewpointWater temp
2014-Jul-19 22:33N 26°12' W 079°28'1818.5
2014-Jul-19 21:33N 26°08' W 079°48'1616.2
2014-Jul-19 20:33N 26°06' W 080°06'1 1.2
2014-Jul-19 19:27N 26°06' W 080°07'0 0.0
2014-Jul-19 18:30N 26°06' W 080°07'0 0.0
2014-Jul-19 17:30N 26°06' W 080°07'0 0.0
2014-Jul-19 16:33N 26°06' W 080°07'0 0.0
2014-Jul-19 15:33N 26°06' W 080°07'0 0.0
2014-Jul-19 14:33N 26°06' W 080°07'0 0.0
2014-Jul-19 13:33N 26°06' W 080°07'0 0.0
2014-Jul-19 12:33N 26°06' W 080°07'0 0.0
2014-Jul-19 11:33N 26°06' W 080°07'2 1.5
2014-Jul-19 10:33N 26°06' W 080°06'1414.5
2014-Jul-19 09:33N 26°07' W 079°50'2020.1
2014-Jul-19 08:33N 26°10' W 079°27'2221.1
2014-Jul-19 07:31N 26°12' W 079°03'  
2014-Jul-12 23:32N 26°13' W 079°22'1919.5
2014-Jul-12 22:33N 26°09' W 079°43'1918.7
2014-Jul-12 21:33N 26°06' W 080°03'4 3.6
2014-Jul-12 20:33N 26°06' W 080°07'0 0.0
2014-Jul-12 19:33N 26°06' W 080°07'0 0.0
2014-Jul-12 18:24N 26°06' W 080°07'0 0.0
2014-Jul-12 17:27N 26°06' W 080°07'0 0.0
2014-Jul-12 16:27N 26°06' W 080°07'0 0.0
2014-Jul-12 15:27N 26°06' W 080°07'0 0.0
2014-Jul-12 14:30N 26°06' W 080°07'0 0.0
2014-Jul-12 13:30N 26°06' W 080°07'0 0.0
2014-Jul-12 12:30N 26°06' W 080°07'0 0.0
2014-Jul-12 11:33N 26°06' W 080°07'0 0.0
2014-Jul-12 10:33N 26°06' W 080°07'6 5.9
2014-Jul-12 09:33N 26°06' W 080°01'1313.1
2014-Jul-12 08:33N 26°08' W 079°46'1312.9
2014-Jul-12 07:33N 26°11' W 079°32'1313.1
2014-Jul-12 06:33N 26°14' W 079°18'  
Track history (hours):
 
Tides and Currents Weather Stations Pressure Air Temp Water Temp Dewpoint Dewpoint Depression Visibility Wind Speed Wind Dir Waves Ship Positions

Caribbean Princess

Operator: Princess Cruises

Last reported at 2014-Jul-19 22:33 UTC. Time now 2014-Jul-24 06:23 UTC.
Position N 26°12' W 079°28'.

Type: Passenger vessel. MMSI: 310423000.

Date/timePositionNaut miles runAvg speedWind from/ knotsBaromVisibWave heightAir tempDewpointWater temp
2014-Jul-19 22:33N 26°12' W 079°28'1818.5
2014-Jul-19 21:33N 26°08' W 079°48'1616.2
2014-Jul-19 20:33N 26°06' W 080°06'1 1.2
2014-Jul-19 19:27N 26°06' W 080°07'0 0.0
2014-Jul-19 18:30N 26°06' W 080°07'0 0.0
2014-Jul-19 17:30N 26°06' W 080°07'0 0.0
2014-Jul-19 16:33N 26°06' W 080°07'0 0.0
2014-Jul-19 15:33N 26°06' W 080°07'0 0.0
2014-Jul-19 14:33N 26°06' W 080°07'0 0.0
2014-Jul-19 13:33N 26°06' W 080°07'0 0.0
2014-Jul-19 12:33N 26°06' W 080°07'0 0.0
2014-Jul-19 11:33N 26°06' W 080°07'2 1.5
2014-Jul-19 10:33N 26°06' W 080°06'1414.5
2014-Jul-19 09:33N 26°07' W 079°50'2020.1
2014-Jul-19 08:33N 26°10' W 079°27'2221.1
2014-Jul-19 07:31N 26°12' W 079°03'  
2014-Jul-12 23:32N 26°13' W 079°22'1919.5
2014-Jul-12 22:33N 26°09' W 079°43'1918.7
2014-Jul-12 21:33N 26°06' W 080°03'4 3.6
2014-Jul-12 20:33N 26°06' W 080°07'0 0.0
2014-Jul-12 19:33N 26°06' W 080°07'0 0.0
2014-Jul-12 18:24N 26°06' W 080°07'0 0.0
2014-Jul-12 17:27N 26°06' W 080°07'0 0.0
2014-Jul-12 16:27N 26°06' W 080°07'0 0.0
2014-Jul-12 15:27N 26°06' W 080°07'0 0.0
2014-Jul-12 14:30N 26°06' W 080°07'0 0.0
2014-Jul-12 13:30N 26°06' W 080°07'0 0.0
2014-Jul-12 12:30N 26°06' W 080°07'0 0.0
2014-Jul-12 11:33N 26°06' W 080°07'0 0.0
2014-Jul-12 10:33N 26°06' W 080°07'6 5.9
2014-Jul-12 09:33N 26°06' W 080°01'1313.1
2014-Jul-12 08:33N 26°08' W 079°46'1312.9
2014-Jul-12 07:33N 26°11' W 079°32'1313.1
2014-Jul-12 06:33N 26°14' W 079°18'  

Dump ship's entire track history